Time,TemperatureF,DewpointF,PressureIn,WindDirection,WindDirectionDegrees,WindSpeedMPH,WindSpeedGustMPH,Humidity,HourlyPrecipIn,Conditions,Clouds,dailyrainin,SoftwareType,DateUTC
2013-03-25 00:00:00,50.8,33.0,29.55,SSW,213,0.0,-999.0,51,-99.99,,,0.00,weatherlink.com 1.10,2013-03-25 07:00:00,
2013-03-25 00:15:00,51.4,33.0,29.55,SSW,213,0.0,-999.0,50,-99.99,,,0.00,weatherlink.com 1.10,2013-03-25 07:15:00,
2013-03-25 00:30:00,50.9,34.0,29.55,SSW,213,0.0,-999.0,53,-99.99,,,0.00,weatherlink.com 1.10,2013-03-25 07:30:00,
2013-03-25 00:45:00,50.0,35.0,29.55,SW,218,0.0,-999.0,57,-99.99,,,0.00,weatherlink.com 1.10,2013-03-25 07:45:00,
2013-03-25 01:00:00,50.7,35.0,29.55,SW,218,0.0,-999.0,56,-99.99,,,0.00,weatherlink.com 1.10,2013-03-25 08:00:00,
2013-03-25 01:15:00,51.2,35.0,29.55,SW,219,0.0,-999.0,55,-99.99,,,0.00,weatherlink.com 1.10,2013-03-25 08:15:00,
2013-03-25 01:29:00,52.0,36.0,29.54,SW,218,0.0,-999.0,54,-99.99,,,0.00,weatherlink.com 1.10,2013-03-25 08:29:00,
2013-03-25 01:44:00,51.5,35.0,29.54,SW,219,0.0,-999.0,54,-99.99,,,0.00,weatherlink.com 1.10,2013-03-25 08:44:00,
2013-03-25 02:00:00,50.6,35.0,29.54,SSE,155,0.0,-999.0,55,-99.99,,,0.00,weatherlink.com 1.10,2013-03-25 09:00:00,
2013-03-25 02:14:00,50.9,35.0,29.54,SSE,152,1.0,-999.0,56,-99.99,,,0.00,weatherlink.com 1.10,2013-03-25 09:14:00,
2013-03-25 02:29:00,51.9,36.0,29.54,ESE,121,1.0,-999.0,55,-99.99,,,0.00,weatherlink.com 1.10,2013-03-25 09:29:00,
2013-03-25 02:44:00,51.9,36.0,29.53,SE,129,0.0,-999.0,54,-99.99,,,0.00,weatherlink.com 1.10,2013-03-25 09:44:00,
2013-03-25 02:59:00,52.1,36.0,29.53,SSE,150,0.0,-999.0,54,-99.99,,,0.00,weatherlink.com 1.10,2013-03-25 09:59:00,
2013-03-25 03:14:00,52.6,36.0,29.53,East,97,0.0,-999.0,54,-99.99,,,0.00,weatherlink.com 1.10,2013-03-25 10:14:00,
2013-03-25 03:29:00,52.7,37.0,29.52,East,98,0.0,-999.0,55,-99.99,,,0.00,weatherlink.com 1.10,2013-03-25 10:29:00,
2013-03-25 03:44:00,52.5,38.0,29.52,ESE,110,0.0,-999.0,58,-99.99,,,0.00,weatherlink.com 1.10,2013-03-25 10:44:00,
2013-03-25 03:59:00,52.4,38.0,29.52,ESE,110,0.0,-999.0,58,-99.99,,,0.00,weatherlink.com 1.10,2013-03-25 10:59:00,
2013-03-25 04:14:00,52.3,37.0,29.52,ESE,111,0.0,-999.0,57,-99.99,,,0.00,weatherlink.com 1.10,2013-03-25 11:14:00,
2013-03-25 04:29:00,52.0,37.0,29.52,ESE,111,0.0,-999.0,57,-99.99,,,0.00,weatherlink.com 1.10,2013-03-25 11:29:00,
2013-03-25 04:44:00,50.8,36.0,29.51,ESE,113,0.0,-999.0,58,-99.99,,,0.00,weatherlink.com 1.10,2013-03-25 11:44:00,
2013-03-25 04:59:00,50.0,36.0,29.51,ESE,113,0.0,-999.0,60,-99.99,,,0.00,weatherlink.com 1.10,2013-03-25 11:59:00,
2013-03-25 05:14:00,50.6,37.0,29.51,ESE,113,0.0,-999.0,59,-99.99,,,0.00,weatherlink.com 1.10,2013-03-25 12:14:00,
2013-03-25 05:29:00,51.1,36.0,29.52,ESE,113,0.0,-999.0,56,-99.99,,,0.00,weatherlink.com 1.10,2013-03-25 12:29:00,
2013-03-25 05:44:00,50.9,35.0,29.52,ESE,113,0.0,-999.0,56,-99.99,,,0.00,weatherlink.com 1.10,2013-03-25 12:44:00,
2013-03-25 05:59:00,50.4,36.0,29.52,ESE,113,0.0,-999.0,58,-99.99,,,0.00,weatherlink.com 1.10,2013-03-25 12:59:00,
2013-03-25 06:14:00,49.5,36.0,29.52,ESE,113,0.0,-999.0,60,-99.99,,,0.00,weatherlink.com 1.10,2013-03-25 13:14:00,
2013-03-25 06:29:00,49.9,36.0,29.52,ESE,113,0.0,-999.0,59,-99.99,,,0.00,weatherlink.com 1.10,2013-03-25 13:29:00,
2013-03-25 06:44:00,50.7,36.0,29.52,ESE,111,0.0,-999.0,58,-99.99,,,0.00,weatherlink.com 1.10,2013-03-25 13:44:00,
2013-03-25 06:59:00,51.2,36.0,29.53,SE,128,0.0,-999.0,57,-99.99,,,0.00,weatherlink.com 1.10,2013-03-25 13:59:00,
2013-03-25 07:14:00,51.5,36.0,29.53,SE,128,0.0,-999.0,56,-99.99,,,0.00,weatherlink.com 1.10,2013-03-25 14:14:00,
2013-03-25 07:29:00,51.1,36.0,29.53,SE,128,0.0,-999.0,57,-99.99,,,0.00,weatherlink.com 1.10,2013-03-25 14:29:00,
2013-03-25 07:44:00,50.9,36.0,29.53,SE,128,0.0,-999.0,57,-99.99,,,0.00,weatherlink.com 1.10,2013-03-25 14:44:00,
2013-03-25 07:59:00,51.8,38.0,29.53,SE,128,0.0,-999.0,59,-99.99,,,0.00,weatherlink.com 1.10,2013-03-25 14:59:00,
2013-03-25 08:14:00,52.6,38.0,29.53,SE,128,0.0,-999.0,59,-99.99,,,0.00,weatherlink.com 1.10,2013-03-25 15:14:00,
2013-03-25 08:29:00,53.8,41.0,29.54,SE,128,0.0,-999.0,62,-99.99,,,0.00,weatherlink.com 1.10,2013-03-25 15:29:00,
2013-03-25 08:44:00,54.9,39.0,29.54,SE,128,0.0,-999.0,56,-99.99,,,0.00,weatherlink.com 1.10,2013-03-25 15:44:00,
2013-03-25 08:59:00,56.1,41.0,29.55,SE,128,0.0,-999.0,58,-99.99,,,0.00,weatherlink.com 1.10,2013-03-25 15:59:00,
2013-03-25 09:14:00,58.5,42.0,29.55,South,172,3.0,-999.0,55,-99.99,,,0.00,weatherlink.com 1.10,2013-03-25 16:14:00,
2013-03-25 09:29:00,60.3,42.0,29.55,South,183,0.0,-999.0,52,-99.99,,,0.00,weatherlink.com 1.10,2013-03-25 16:29:00,
2013-03-25 09:44:00,61.4,45.0,29.55,NW,306,0.0,-999.0,55,-99.99,,,0.00,weatherlink.com 1.10,2013-03-25 16:44:00,
2013-03-25 09:59:00,60.3,43.0,29.54,NE,34,0.0,-999.0,53,-99.99,,,0.00,weatherlink.com 1.10,2013-03-25 16:59:00,
2013-03-25 10:14:00,60.7,44.0,29.54,NE,37,0.0,-999.0,54,-99.99,,,0.00,weatherlink.com 1.10,2013-03-25 17:14:00,
2013-03-25 10:29:00,62.1,44.0,29.55,NE,53,0.0,-999.0,51,-99.99,,,0.00,weatherlink.com 1.10,2013-03-25 17:29:00,
2013-03-25 10:44:00,61.8,43.0,29.55,ENE,57,0.0,-999.0,50,-99.99,,,0.00,weatherlink.com 1.10,2013-03-25 17:44:00,
2013-03-25 10:59:00,62.1,45.0,29.55,NNE,27,4.0,-999.0,53,-99.99,,,0.00,weatherlink.com 1.10,2013-03-25 17:59:00,
2013-03-25 11:14:00,61.7,44.0,29.55,NE,49,0.0,-999.0,53,-99.99,,,0.00,weatherlink.com 1.10,2013-03-25 18:14:00,
2013-03-25 11:29:00,63.0,44.0,29.55,NNE,13,0.0,-999.0,50,-99.99,,,0.00,weatherlink.com 1.10,2013-03-25 18:29:00,
2013-03-25 11:44:00,63.7,43.0,29.55,NNE,28,0.0,-999.0,47,-99.99,,,0.00,weatherlink.com 1.10,2013-03-25 18:44:00,
2013-03-25 11:59:00,63.9,45.0,29.55,NNE,18,0.0,-999.0,51,-99.99,,,0.00,weatherlink.com 1.10,2013-03-25 18:59:00,
2013-03-25 12:14:00,64.6,46.0,29.55,NE,35,0.0,-999.0,51,-99.99,,,0.00,weatherlink.com 1.10,2013-03-25 19:14:00,
2013-03-25 12:29:00,63.3,47.0,29.55,NNE,24,0.0,-999.0,56,-99.99,,,0.00,weatherlink.com 1.10,2013-03-25 19:29:00,
2013-03-25 12:44:00,61.5,47.0,29.55,NNE,33,0.0,-999.0,59,-99.99,,,0.00,weatherlink.com 1.10,2013-03-25 19:44:00,
2013-03-25 12:59:00,62.1,47.0,29.55,WNW,298,0.0,-999.0,59,-99.99,,,0.00,weatherlink.com 1.10,2013-03-25 19:59:00,
2013-03-25 13:14:00,61.3,47.0,29.54,NW,311,0.0,-999.0,60,-99.99,,,0.00,weatherlink.com 1.10,2013-03-25 20:14:00,
2013-03-25 13:29:00,60.7,47.0,29.54,WNW,300,0.0,-999.0,62,-99.99,,,0.00,weatherlink.com 1.10,2013-03-25 20:29:00,
2013-03-25 13:44:00,61.6,47.0,29.54,NNW,331,0.0,-999.0,60,-99.99,,,0.00,weatherlink.com 1.10,2013-03-25 20:44:00,
2013-03-25 13:59:00,62.6,47.0,29.53,North,5,0.0,-999.0,57,-99.99,,,0.00,weatherlink.com 1.10,2013-03-25 20:59:00,
2013-03-25 14:14:00,63.5,49.0,29.53,NE,44,3.0,-999.0,59,-99.99,,,0.00,weatherlink.com 1.10,2013-03-25 21:14:00,
2013-03-25 14:44:00,62.2,48.0,29.52,NW,311,2.0,-999.0,61,-99.99,,,0.00,weatherlink.com 1.10,2013-03-25 21:44:00,
2013-03-25 14:59:00,61.3,48.0,29.52,NNW,329,0.0,-999.0,63,-99.99,,,0.00,weatherlink.com 1.10,2013-03-25 21:59:00,
2013-03-25 15:14:00,60.7,48.0,29.51,WNW,287,6.0,-999.0,63,-99.99,,,0.00,weatherlink.com 1.10,2013-03-25 22:14:00,
2013-03-25 15:44:00,60.6,46.0,29.52,WNW,291,5.0,-999.0,59,-99.99,,,0.00,weatherlink.com 1.10,2013-03-25 22:44:00,
2013-03-25 15:59:00,60.3,46.0,29.51,NW,323,0.0,-999.0,59,-99.99,,,0.00,weatherlink.com 1.10,2013-03-25 22:59:00,
2013-03-25 16:14:00,59.3,46.0,29.51,West,279,5.0,-999.0,61,-99.99,,,0.00,weatherlink.com 1.10,2013-03-25 23:14:00,
2013-03-25 16:29:00,59.4,46.0,29.50,NW,306,0.0,-999.0,61,-99.99,,,0.00,weatherlink.com 1.10,2013-03-25 23:29:00,
2013-03-25 16:44:00,58.7,45.0,29.50,NW,311,0.0,-999.0,61,-99.99,,,0.00,weatherlink.com 1.10,2013-03-25 23:44:00,
2013-03-25 16:59:00,57.1,45.0,29.50,WNW,298,3.0,-999.0,64,-99.99,,,0.00,weatherlink.com 1.10,2013-03-25 23:59:00,
2013-03-25 17:14:00,54.6,44.0,29.50,WNW,294,6.0,-999.0,67,-99.99,,,0.00,weatherlink.com 1.10,2013-03-26 00:14:00,
2013-03-25 17:29:00,51.3,42.0,29.51,WNW,298,3.0,-999.0,71,-99.99,,,0.00,weatherlink.com 1.10,2013-03-26 00:29:00,
2013-03-25 17:44:00,49.0,42.0,29.51,West,271,0.0,-999.0,77,-99.99,,,0.00,weatherlink.com 1.10,2013-03-26 00:44:00,
2013-03-25 18:14:00,48.5,42.0,29.51,West,281,0.0,-999.0,79,-99.99,,,0.00,weatherlink.com 1.10,2013-03-26 01:14:00,
2013-03-25 18:29:00,46.8,41.0,29.51,SSW,201,5.0,-999.0,81,-99.99,,,0.00,weatherlink.com 1.10,2013-03-26 01:29:00,
2013-03-25 18:45:00,45.8,41.0,29.52,SSW,200,0.0,-999.0,83,-99.99,,,0.00,weatherlink.com 1.10,2013-03-26 01:45:00,
2013-03-25 18:59:00,45.2,41.0,29.52,SSW,203,4.0,-999.0,84,-99.99,,,0.00,weatherlink.com 1.10,2013-03-26 01:59:00,
2013-03-25 19:14:00,44.7,41.0,29.52,West,267,0.0,-999.0,85,-99.99,,,0.00,weatherlink.com 1.10,2013-03-26 02:14:00,
2013-03-25 19:29:00,43.4,40.0,29.52,WSW,248,0.0,-999.0,86,-99.99,,,0.00,weatherlink.com 1.10,2013-03-26 02:29:00,
2013-03-25 19:45:00,42.5,39.0,29.52,WSW,254,4.0,-999.0,87,-99.99,,,0.00,weatherlink.com 1.10,2013-03-26 02:45:00,
2013-03-25 19:59:00,41.8,38.0,29.51,SW,221,0.0,-999.0,86,-99.99,,,0.00,weatherlink.com 1.10,2013-03-26 02:59:00,
2013-03-25 20:15:00,42.5,40.0,29.51,SSW,196,4.0,-999.0,90,-99.99,,,0.00,weatherlink.com 1.10,2013-03-26 03:15:00,
2013-03-25 20:30:00,44.7,42.0,29.52,WNW,290,0.0,-999.0,89,-99.99,,,0.00,weatherlink.com 1.10,2013-03-26 03:30:00,
2013-03-25 20:45:00,45.0,41.0,29.52,NNW,345,0.0,-999.0,86,-99.99,,,0.00,weatherlink.com 1.10,2013-03-26 03:45:00,
2013-03-25 21:00:00,44.2,40.0,29.52,SSW,200,0.0,-999.0,85,-99.99,,,0.00,weatherlink.com 1.10,2013-03-26 04:00:00,
2013-03-25 21:15:00,43.7,40.0,29.53,West,269,4.0,-999.0,85,-99.99,,,0.00,weatherlink.com 1.10,2013-03-26 04:15:00,
2013-03-25 21:30:00,41.6,38.0,29.54,West,279,3.0,-999.0,87,-99.99,,,0.00,weatherlink.com 1.10,2013-03-26 04:30:00,
2013-03-25 21:44:00,40.6,38.0,29.54,SSW,213,5.0,-999.0,89,-99.99,,,0.00,weatherlink.com 1.10,2013-03-26 04:44:00,
2013-03-25 22:00:00,39.8,37.0,29.54,SW,215,0.0,-999.0,91,-99.99,,,0.00,weatherlink.com 1.10,2013-03-26 05:00:00,
2013-03-25 22:15:00,39.9,38.0,29.54,West,273,4.0,-999.0,92,-99.99,,,0.00,weatherlink.com 1.10,2013-03-26 05:15:00,
2013-03-25 22:30:00,40.1,38.0,29.55,West,273,6.0,-999.0,93,-99.99,,,0.00,weatherlink.com 1.10,2013-03-26 05:30:00,
2013-03-25 22:45:00,40.3,39.0,29.54,WSW,242,3.0,-999.0,93,-99.99,,,0.00,weatherlink.com 1.10,2013-03-26 05:45:00,
2013-03-25 23:00:00,39.6,38.0,29.54,SSW,209,0.0,-999.0,92,-99.99,,,0.00,weatherlink.com 1.10,2013-03-26 06:00:00,
2013-03-25 23:15:00,38.9,37.0,29.54,West,269,0.0,-999.0,93,-99.99,,,0.00,weatherlink.com 1.10,2013-03-26 06:15:00,
2013-03-25 23:30:00,39.6,38.0,29.55,West,280,3.0,-999.0,94,-99.99,,,0.00,weatherlink.com 1.10,2013-03-26 06:30:00,
2013-03-25 23:45:00,40.1,39.0,29.55,NW,306,0.0,-999.0,94,-99.99,,,0.00,weatherlink.com 1.10,2013-03-26 06:45:00,